Time,TemperatureF,DewpointF,PressureIn,WindDirection,WindDirectionDegrees,WindSpeedMPH,WindSpeedGustMPH,Humidity,HourlyPrecipIn,Conditions,Clouds,dailyrainin,SoftwareType,DateUTC
2013-02-23 00:00:00,19.9,10.1,28.20,North,9,0.0,0.0,65,0.00,CLR,OVC,0.00,WeatherDisplay:10.37,2013-02-23 05:00:00,
2013-02-23 00:05:00,20.1,10.2,28.20,North,9,0.0,0.0,65,0.00,CLR,OVC,0.00,WeatherDisplay:10.37,2013-02-23 05:05:00,
2013-02-23 00:10:00,20.1,10.2,28.20,North,9,0.0,0.0,65,0.00,CLR,OVC,0.00,WeatherDisplay:10.37,2013-02-23 05:10:00,
2013-02-23 00:15:00,20.1,10.2,28.20,North,9,0.0,0.0,65,0.00,CLR,OVC,0.00,WeatherDisplay:10.37,2013-02-23 05:15:00,
2013-02-23 00:20:00,20.1,10.2,28.20,North,9,0.0,0.0,65,0.00,CLR,OVC,0.00,WeatherDisplay:10.37,2013-02-23 05:20:00,
2013-02-23 00:25:00,20.1,10.2,28.20,North,9,0.0,0.0,65,0.00,CLR,OVC,0.00,WeatherDisplay:10.37,2013-02-23 05:25:00,
2013-02-23 00:30:00,20.1,10.2,28.20,North,9,0.0,0.0,65,0.00,CLR,OVC,0.00,WeatherDisplay:10.37,2013-02-23 05:30:00,
2013-02-23 00:35:00,20.1,10.2,28.20,North,9,0.0,0.0,65,0.00,CLR,OVC,0.00,WeatherDisplay:10.37,2013-02-23 05:35:00,
2013-02-23 00:40:00,20.1,10.2,28.20,North,9,0.0,0.0,65,0.00,CLR,OVC,0.00,WeatherDisplay:10.37,2013-02-23 05:40:00,
2013-02-23 00:45:00,20.1,10.2,28.20,North,9,0.0,0.0,65,0.00,CLR,OVC,0.00,WeatherDisplay:10.37,2013-02-23 05:45:00,
2013-02-23 00:50:00,20.1,10.2,28.20,North,9,0.0,0.0,65,0.00,CLR,OVC,0.00,WeatherDisplay:10.37,2013-02-23 05:50:00,
2013-02-23 00:55:00,20.1,10.2,28.20,North,9,0.0,0.0,65,0.00,CLR,OVC,0.00,WeatherDisplay:10.37,2013-02-23 05:55:00,
2013-02-23 01:00:00,20.1,10.2,28.20,North,9,0.0,0.0,65,0.00,CLR,OVC,0.00,WeatherDisplay:10.37,2013-02-23 06:00:00,
2013-02-23 01:05:00,20.1,10.2,28.20,North,9,0.0,0.0,65,0.00,CLR,OVC,0.00,WeatherDisplay:10.37,2013-02-23 06:05:00,
2013-02-23 01:10:00,20.1,10.2,28.20,North,9,0.0,0.0,65,0.00,CLR,OVC,0.00,WeatherDisplay:10.37,2013-02-23 06:10:00,
2013-02-23 01:15:00,20.1,10.2,28.20,North,9,0.0,0.0,65,0.00,CLR,OVC,0.00,WeatherDisplay:10.37,2013-02-23 06:15:00,
2013-02-23 01:21:00,20.1,10.2,28.17,North,9,0.0,0.0,65,0.00,CLR,OVC,0.00,WeatherDisplay:10.37,2013-02-23 06:21:00,
2013-02-23 01:26:00,20.1,10.2,28.17,North,9,0.0,0.0,65,0.00,CLR,OVC,0.00,WeatherDisplay:10.37,2013-02-23 06:26:00,
2013-02-23 01:31:00,20.1,10.2,28.17,North,9,0.0,0.0,65,0.00,CLR,OVC,0.00,WeatherDisplay:10.37,2013-02-23 06:31:00,
2013-02-23 01:36:00,20.1,9.9,28.17,North,9,0.0,0.0,64,0.00,CLR,OVC,0.00,WeatherDisplay:10.37,2013-02-23 06:36:00,
2013-02-23 01:41:00,20.1,10.2,28.17,North,9,0.0,0.0,65,0.00,CLR,OVC,0.00,WeatherDisplay:10.37,2013-02-23 06:41:00,
2013-02-23 01:46:00,19.9,10.1,28.17,North,9,0.0,0.0,65,0.00,CLR,OVC,0.00,WeatherDisplay:10.37,2013-02-23 06:46:00,
2013-02-23 01:51:00,19.9,9.7,28.17,North,9,0.0,0.0,64,0.00,CLR,OVC,0.00,WeatherDisplay:10.37,2013-02-23 06:51:00,
2013-02-23 01:56:00,19.9,9.7,28.17,North,9,0.0,0.0,64,0.00,CLR,OVC,0.00,WeatherDisplay:10.37,2013-02-23 06:56:00,
2013-02-23 02:01:00,19.9,10.1,28.17,North,9,0.0,0.0,65,0.00,CLR,OVC,0.00,WeatherDisplay:10.37,2013-02-23 07:01:00,
2013-02-23 02:06:00,19.9,10.1,28.17,North,9,0.0,0.0,65,0.00,CLR,OVC,0.00,WeatherDisplay:10.37,2013-02-23 07:06:00,
2013-02-23 02:11:00,19.9,9.7,28.17,North,9,0.0,0.0,64,0.00,CLR,OVC,0.00,WeatherDisplay:10.37,2013-02-23 07:11:00,
2013-02-23 02:16:00,19.9,9.7,28.17,North,9,0.0,0.0,64,0.00,CLR,OVC,0.00,WeatherDisplay:10.37,2013-02-23 07:16:00,
2013-02-23 02:21:00,19.9,9.7,28.17,North,9,0.0,0.0,64,0.00,CLR,OVC,0.00,WeatherDisplay:10.37,2013-02-23 07:21:00,
2013-02-23 02:26:00,19.8,9.5,28.17,North,9,0.0,0.0,64,0.00,CLR,OVC,0.00,WeatherDisplay:10.37,2013-02-23 07:26:00,
2013-02-23 02:31:00,19.8,9.5,28.17,North,9,0.0,0.0,64,0.00,CLR,OVC,0.00,WeatherDisplay:10.37,2013-02-23 07:31:00,
2013-02-23 02:36:00,19.8,9.5,28.17,North,9,0.0,0.0,64,0.00,CLR,OVC,0.00,WeatherDisplay:10.37,2013-02-23 07:36:00,
2013-02-23 02:41:00,19.6,9.4,28.17,North,9,0.0,0.0,64,0.00,CLR,OVC,0.00,WeatherDisplay:10.37,2013-02-23 07:41:00,
2013-02-23 02:46:00,19.6,9.4,28.17,North,9,0.0,0.0,64,0.00,CLR,OVC,0.00,WeatherDisplay:10.37,2013-02-23 07:46:00,
2013-02-23 02:51:00,19.6,9.4,28.17,North,9,0.0,0.0,64,0.00,CLR,OVC,0.00,WeatherDisplay:10.37,2013-02-23 07:51:00,
2013-02-23 02:56:00,19.6,9.4,28.17,North,9,0.0,0.0,64,0.00,CLR,OVC,0.00,WeatherDisplay:10.37,2013-02-23 07:56:00,
2013-02-23 03:01:00,19.6,9.4,28.17,North,9,0.0,0.0,64,0.00,CLR,OVC,0.00,WeatherDisplay:10.37,2013-02-23 08:01:00,
2013-02-23 03:06:00,19.6,9.4,28.17,North,9,0.0,0.0,64,0.00,CLR,OVC,0.00,WeatherDisplay:10.37,2013-02-23 08:06:00,
2013-02-23 03:11:00,19.6,9.4,28.17,North,9,0.0,0.0,64,0.00,CLR,OVC,0.00,WeatherDisplay:10.37,2013-02-23 08:11:00,
2013-02-23 03:16:00,19.4,9.2,28.17,North,9,0.0,0.0,64,0.00,CLR,OVC,0.00,WeatherDisplay:10.37,2013-02-23 08:16:00,
2013-02-23 03:21:00,19.4,9.2,28.17,North,9,0.0,0.0,64,0.00,CLR,OVC,0.00,WeatherDisplay:10.37,2013-02-23 08:21:00,
2013-02-23 03:26:00,19.4,9.2,28.17,North,9,0.0,0.0,64,0.00,CLR,OVC,0.00,WeatherDisplay:10.37,2013-02-23 08:26:00,
2013-02-23 03:31:00,19.2,9.0,28.17,North,9,0.0,0.0,64,0.00,CLR,OVC,0.00,WeatherDisplay:10.37,2013-02-23 08:31:00,
2013-02-23 03:36:00,18.9,8.3,28.17,North,9,0.0,0.0,63,0.00,CLR,OVC,0.00,WeatherDisplay:10.37,2013-02-23 08:36:00,
2013-02-23 03:41:00,18.7,8.2,28.17,North,9,0.0,0.0,63,0.00,CLR,OVC,0.00,WeatherDisplay:10.37,2013-02-23 08:41:00,
2013-02-23 03:46:00,18.5,8.0,28.17,North,9,0.0,0.0,63,0.00,CLR,OVC,0.00,WeatherDisplay:10.37,2013-02-23 08:46:00,
2013-02-23 03:51:00,18.5,8.0,28.14,North,9,0.0,0.0,63,0.00,CLR,OVC,0.00,WeatherDisplay:10.37,2013-02-23 08:51:00,
2013-02-23 03:56:00,18.3,8.2,28.14,North,9,0.0,0.0,64,0.00,CLR,OVC,0.00,WeatherDisplay:10.37,2013-02-23 08:56:00,
2013-02-23 04:01:00,18.3,8.2,28.14,North,9,0.0,0.0,64,0.00,CLR,OVC,0.00,WeatherDisplay:10.37,2013-02-23 09:01:00,
2013-02-23 04:06:00,18.1,7.6,28.14,North,9,0.0,0.0,63,0.00,CLR,OVC,0.00,WeatherDisplay:10.37,2013-02-23 09:06:00,
2013-02-23 04:11:00,18.1,7.6,28.14,North,9,0.0,0.0,63,0.00,CLR,OVC,0.00,WeatherDisplay:10.37,2013-02-23 09:11:00,
2013-02-23 04:16:00,18.0,7.5,28.14,North,9,0.0,0.0,63,0.00,CLR,OVC,0.00,WeatherDisplay:10.37,2013-02-23 09:16:00,
2013-02-23 04:21:00,17.8,7.3,28.14,North,9,0.0,0.0,63,0.00,CLR,OVC,0.00,WeatherDisplay:10.37,2013-02-23 09:21:00,
2013-02-23 04:26:00,17.6,7.1,28.14,North,9,0.0,0.0,63,0.00,CLR,OVC,0.00,WeatherDisplay:10.37,2013-02-23 09:26:00,
2013-02-23 04:31:00,17.6,7.1,28.14,North,9,0.0,0.0,63,0.00,CLR,OVC,0.00,WeatherDisplay:10.37,2013-02-23 09:31:00,
2013-02-23 04:36:00,17.6,7.1,28.14,North,9,0.0,0.0,63,0.00,CLR,OVC,0.00,WeatherDisplay:10.37,2013-02-23 09:36:00,
2013-02-23 04:41:00,17.4,7.0,28.14,North,9,0.0,0.0,63,0.00,CLR,OVC,0.00,WeatherDisplay:10.37,2013-02-23 09:41:00,
2013-02-23 04:46:00,17.6,7.1,28.14,North,9,0.0,0.0,63,0.00,CLR,OVC,0.00,WeatherDisplay:10.37,2013-02-23 09:46:00,
2013-02-23 04:51:00,17.6,7.1,28.14,North,9,0.0,2.3,63,0.00,CLR,OVC,0.00,WeatherDisplay:10.37,2013-02-23 09:51:00,
2013-02-23 04:56:00,17.8,7.7,28.14,North,9,0.0,0.0,64,0.00,CLR,OVC,0.00,WeatherDisplay:10.37,2013-02-23 09:56:00,
2013-02-23 05:01:00,18.1,8.0,28.14,North,9,0.0,0.0,64,0.00,CLR,OVC,0.00,WeatherDisplay:10.37,2013-02-23 10:01:00,
2013-02-23 05:06:00,18.3,8.2,28.14,North,9,0.0,0.0,64,0.00,CLR,OVC,0.00,WeatherDisplay:10.37,2013-02-23 10:06:00,
2013-02-23 05:11:00,18.5,8.3,28.14,North,9,0.0,0.0,64,0.00,CLR,OVC,0.00,WeatherDisplay:10.37,2013-02-23 10:11:00,
2013-02-23 05:16:00,18.7,8.5,28.14,North,9,0.0,0.0,64,0.00,CLR,OVC,0.00,WeatherDisplay:10.37,2013-02-23 10:16:00,
2013-02-23 05:21:00,18.9,8.7,28.14,North,9,0.0,0.0,64,0.00,CLR,OVC,0.00,WeatherDisplay:10.37,2013-02-23 10:21:00,
2013-02-23 05:26:00,19.0,9.2,28.14,North,9,0.0,0.0,65,0.00,CLR,OVC,0.00,WeatherDisplay:10.37,2013-02-23 10:26:00,
2013-02-23 05:31:00,19.0,9.2,28.14,North,9,0.0,0.0,65,0.00,CLR,OVC,0.00,WeatherDisplay:10.37,2013-02-23 10:31:00,
2013-02-23 05:36:00,19.2,9.4,28.14,North,9,0.0,0.0,65,0.00,CLR,OVC,0.00,WeatherDisplay:10.37,2013-02-23 10:36:00,
2013-02-23 05:41:00,19.2,9.4,28.14,North,8,0.0,0.0,65,0.00,CLR,OVC,0.00,WeatherDisplay:10.37,2013-02-23 10:41:00,
2013-02-23 05:46:00,19.0,9.2,28.14,North,8,0.0,0.0,65,0.00,CLR,OVC,0.00,WeatherDisplay:10.37,2013-02-23 10:46:00,
2013-02-23 05:51:00,18.9,9.0,28.14,North,8,0.0,0.0,65,0.00,CLR,OVC,0.00,WeatherDisplay:10.37,2013-02-23 10:51:00,
2013-02-23 05:56:00,18.5,8.7,28.14,North,8,0.0,3.5,65,0.00,CLR,OVC,0.00,WeatherDisplay:10.37,2013-02-23 10:56:00,
2013-02-23 06:01:00,18.1,8.3,28.14,North,8,0.0,0.0,65,0.00,CLR,OVC,0.00,WeatherDisplay:10.37,2013-02-23 11:01:00,
2013-02-23 06:06:00,17.6,7.5,28.14,North,8,0.0,0.0,64,0.00,CLR,OVC,0.00,WeatherDisplay:10.37,2013-02-23 11:06:00,
2013-02-23 06:11:00,17.1,7.0,28.14,North,8,0.0,0.0,64,0.00,CLR,OVC,0.00,WeatherDisplay:10.37,2013-02-23 11:11:00,
2013-02-23 06:16:00,16.2,5.8,28.14,North,8,0.0,0.0,63,0.00,CLR,OVC,0.00,WeatherDisplay:10.37,2013-02-23 11:16:00,
2013-02-23 06:21:00,15.8,5.4,28.14,North,8,0.0,0.0,63,0.00,CLR,OVC,0.00,WeatherDisplay:10.37,2013-02-23 11:21:00,
2013-02-23 06:26:00,15.1,4.7,28.14,North,8,0.0,0.0,63,0.00,CLR,OVC,0.00,WeatherDisplay:10.37,2013-02-23 11:26:00,
2013-02-23 06:31:00,14.7,4.4,28.14,North,8,0.0,0.0,63,0.00,CLR,OVC,0.00,WeatherDisplay:10.37,2013-02-23 11:31:00,
2013-02-23 06:36:00,14.2,3.9,28.14,North,8,0.0,0.0,63,0.00,CLR,OVC,0.00,WeatherDisplay:10.37,2013-02-23 11:36:00,
2013-02-23 06:41:00,13.6,3.4,28.14,North,8,0.0,0.0,63,0.00,CLR,OVC,0.00,WeatherDisplay:10.37,2013-02-23 11:41:00,
2013-02-23 06:46:00,13.5,3.2,28.14,North,8,0.0,0.0,63,0.00,CLR,OVC,0.00,WeatherDisplay:10.37,2013-02-23 11:46:00,
2013-02-23 06:51:00,12.9,2.7,28.14,North,8,0.0,0.0,63,0.00,CLR,OVC,0.00,WeatherDisplay:10.37,2013-02-23 11:51:00,
2013-02-23 06:56:00,12.4,2.2,28.14,North,8,0.0,0.0,63,0.00,CLR,OVC,0.00,WeatherDisplay:10.37,2013-02-23 11:56:00,
2013-02-23 07:01:00,11.8,1.7,28.14,North,8,0.0,0.0,63,0.00,CLR,OVC,0.00,WeatherDisplay:10.37,2013-02-23 12:01:00,
2013-02-23 07:06:00,11.7,1.5,28.14,North,8,0.0,0.0,63,0.00,CLR,OVC,0.00,WeatherDisplay:10.37,2013-02-23 12:06:00,
2013-02-23 07:11:00,10.8,0.6,28.14,North,8,0.0,0.0,63,0.00,CLR,OVC,0.00,WeatherDisplay:10.37,2013-02-23 12:11:00,
2013-02-23 07:16:00,10.4,0.3,28.14,North,8,0.0,0.0,63,0.00,CLR,OVC,0.00,WeatherDisplay:10.37,2013-02-23 12:16:00,
2013-02-23 07:21:00,9.9,-0.2,28.14,North,8,0.0,0.0,63,0.00,CLR,OVC,0.00,WeatherDisplay:10.37,2013-02-23 12:21:00,
2013-02-23 07:26:00,9.3,-0.7,28.14,North,8,0.0,0.0,63,0.00,CLR,OVC,0.00,WeatherDisplay:10.37,2013-02-23 12:26:00,
2013-02-23 07:31:00,8.8,-1.3,28.14,North,8,0.0,0.0,63,0.00,CLR,OVC,0.00,WeatherDisplay:10.37,2013-02-23 12:31:00,
2013-02-23 07:36:00,8.4,-1.6,28.14,North,8,0.0,0.0,63,0.00,CLR,OVC,0.00,WeatherDisplay:10.37,2013-02-23 12:36:00,
2013-02-23 07:41:00,7.9,-2.1,28.14,North,8,0.0,0.0,63,0.00,CLR,OVC,0.00,WeatherDisplay:10.37,2013-02-23 12:41:00,
2013-02-23 07:46:00,7.5,-2.5,28.14,North,8,0.0,0.0,63,0.00,CLR,OVC,0.00,WeatherDisplay:10.37,2013-02-23 12:46:00,
2013-02-23 07:51:00,7.2,-2.8,28.14,North,8,0.0,0.0,63,0.00,CLR,OVC,0.00,WeatherDisplay:10.37,2013-02-23 12:51:00,
2013-02-23 07:56:00,7.2,-2.8,28.14,North,8,0.0,0.0,63,0.00,CLR,OVC,0.00,WeatherDisplay:10.37,2013-02-23 12:56:00,
2013-02-23 08:01:00,7.2,-2.8,28.14,North,8,0.0,0.0,63,0.00,CLR,OVC,0.00,WeatherDisplay:10.37,2013-02-23 13:01:00,
2013-02-23 08:06:00,7.0,-3.0,28.14,North,8,0.0,0.0,63,0.00,CLR,OVC,0.00,WeatherDisplay:10.37,2013-02-23 13:06:00,
2013-02-23 08:11:00,6.8,-3.1,28.14,North,8,0.0,0.0,63,0.00,CLR,OVC,0.00,WeatherDisplay:10.37,2013-02-23 13:11:00,
2013-02-23 08:16:00,6.8,-3.1,28.14,North,8,0.0,0.0,63,0.00,CLR,OVC,0.00,WeatherDisplay:10.37,2013-02-23 13:16:00,
2013-02-23 08:21:00,6.8,-3.1,28.14,North,8,0.0,0.0,63,0.00,CLR,OVC,0.00,WeatherDisplay:10.37,2013-02-23 13:21:00,
2013-02-23 08:26:00,6.8,-3.1,28.14,North,8,0.0,0.0,63,0.00,CLR,OVC,0.00,WeatherDisplay:10.37,2013-02-23 13:26:00,
2013-02-23 08:31:00,7.0,-3.0,28.14,North,8,0.0,0.0,63,0.00,CLR,OVC,0.00,WeatherDisplay:10.37,2013-02-23 13:31:00,
2013-02-23 08:36:00,7.2,-2.8,28.14,North,8,0.0,0.0,63,0.00,CLR,OVC,0.00,WeatherDisplay:10.37,2013-02-23 13:36:00,
2013-02-23 08:41:00,7.7,-2.3,28.14,North,8,0.0,0.0,63,0.00,CLR,OVC,0.00,WeatherDisplay:10.37,2013-02-23 13:41:00,
2013-02-23 08:46:00,8.1,-1.9,28.14,North,8,0.0,0.0,63,0.00,CLR,OVC,0.00,WeatherDisplay:10.37,2013-02-23 13:46:00,
2013-02-23 08:51:00,8.6,-1.4,28.14,North,8,0.0,0.0,63,0.00,CLR,OVC,0.00,WeatherDisplay:10.37,2013-02-23 13:51:00,
2013-02-23 08:56:00,9.1,-0.9,28.14,North,8,0.0,0.0,63,0.00,CLR,OVC,0.00,WeatherDisplay:10.37,2013-02-23 13:56:00,
2013-02-23 09:01:00,9.7,-0.4,28.14,North,8,0.0,0.0,63,0.00,CLR,OVC,0.00,WeatherDisplay:10.37,2013-02-23 14:01:00,
2013-02-23 09:06:00,10.4,0.3,28.14,North,8,0.0,0.0,63,0.00,CLR,OVC,0.00,WeatherDisplay:10.37,2013-02-23 14:06:00,
2013-02-23 09:11:00,11.1,1.0,28.14,North,8,0.0,0.0,63,0.00,CLR,OVC,0.00,WeatherDisplay:10.37,2013-02-23 14:11:00,
2013-02-23 09:16:00,12.4,2.2,28.14,North,8,0.0,0.0,63,0.00,CLR,OVC,0.00,WeatherDisplay:10.37,2013-02-23 14:16:00,
2013-02-23 09:21:00,13.3,2.7,28.14,North,8,0.0,0.0,62,0.00,CLR,OVC,0.00,WeatherDisplay:10.37,2013-02-23 14:21:00,
2013-02-23 09:26:00,14.2,3.9,28.14,North,8,0.0,0.0,63,0.00,CLR,OVC,0.00,WeatherDisplay:10.37,2013-02-23 14:26:00,
2013-02-23 09:31:00,16.0,5.6,28.14,North,8,0.0,0.0,63,0.00,CLR,OVC,0.00,WeatherDisplay:10.37,2013-02-23 14:31:00,
2013-02-23 09:36:00,18.5,8.7,28.14,North,8,0.0,0.0,65,0.00,CLR,OVC,0.00,WeatherDisplay:10.37,2013-02-23 14:36:00,
2013-02-23 09:41:00,20.3,10.7,28.14,North,8,0.0,2.7,66,0.00,CLR,OVC,0.00,WeatherDisplay:10.37,2013-02-23 14:41:00,
2013-02-23 09:46:00,22.3,12.3,28.14,North,8,0.0,0.0,65,0.00,CLR,OVC,0.00,WeatherDisplay:10.37,2013-02-23 14:46:00,
2013-02-23 09:51:00,23.9,13.1,28.14,North,8,0.0,0.0,63,0.00,CLR,OVC,0.00,WeatherDisplay:10.37,2013-02-23 14:51:00,
2013-02-23 09:56:00,25.2,13.6,28.14,North,8,0.0,0.0,61,0.00,CLR,OVC,0.00,WeatherDisplay:10.37,2013-02-23 14:56:00,
2013-02-23 10:01:00,26.1,12.5,28.14,West,268,0.0,3.5,56,0.00,CLR,OVC,0.00,WeatherDisplay:10.37,2013-02-23 15:01:00,
2013-02-23 10:06:00,26.4,11.6,28.14,West,272,0.0,0.0,53,0.00,CLR,OVC,0.00,WeatherDisplay:10.37,2013-02-23 15:06:00,
2013-02-23 10:11:00,27.7,13.2,28.14,West,271,0.0,0.0,54,0.00,CLR,OVC,0.00,WeatherDisplay:10.37,2013-02-23 15:11:00,
2013-02-23 10:16:00,28.4,13.0,28.14,West,274,0.0,0.0,52,0.00,CLR,OVC,0.00,WeatherDisplay:10.37,2013-02-23 15:16:00,
2013-02-23 10:21:00,28.9,12.1,28.14,West,274,0.0,2.3,49,0.00,CLR,OVC,0.00,WeatherDisplay:10.37,2013-02-23 15:21:00,
2013-02-23 10:26:00,28.8,9.6,28.14,West,265,0.0,2.3,44,0.00,CLR,OVC,0.00,WeatherDisplay:10.37,2013-02-23 15:26:00,
2013-02-23 10:31:00,28.2,8.6,28.14,WSW,248,0.0,2.3,43,0.00,CLR,OVC,0.00,WeatherDisplay:10.37,2013-02-23 15:31:00,
2013-02-23 10:36:00,28.6,8.9,28.14,WSW,251,0.0,3.5,43,0.00,CLR,OVC,0.00,WeatherDisplay:10.37,2013-02-23 15:36:00,
2013-02-23 10:41:00,28.8,8.5,28.14,WSW,252,0.0,0.0,42,0.00,CLR,OVC,0.00,WeatherDisplay:10.37,2013-02-23 15:41:00,
2013-02-23 10:46:00,29.5,8.6,28.14,West,261,0.0,2.7,41,0.00,CLR,OVC,0.00,WeatherDisplay:10.37,2013-02-23 15:46:00,
2013-02-23 10:51:00,30.6,9.6,28.14,WSW,243,0.0,0.0,41,0.00,CLR,OVC,0.00,WeatherDisplay:10.37,2013-02-23 15:51:00,
2013-02-23 10:56:00,31.3,9.7,28.14,NNW,338,0.0,0.0,40,0.00,CLR,OVC,0.00,WeatherDisplay:10.37,2013-02-23 15:56:00,
2013-02-23 11:01:00,31.6,10.6,28.14,West,277,0.0,0.0,41,0.00,CLR,OVC,0.00,WeatherDisplay:10.37,2013-02-23 16:01:00,
2013-02-23 11:06:00,31.8,9.6,28.14,WNW,283,0.0,2.3,39,0.00,CLR,OVC,0.00,WeatherDisplay:10.37,2013-02-23 16:06:00,
2013-02-23 11:11:00,31.8,9.6,28.14,West,279,0.0,2.3,39,0.00,CLR,OVC,0.00,WeatherDisplay:10.37,2013-02-23 16:11:00,
2013-02-23 11:16:00,32.0,9.2,28.14,West,273,2.2,3.5,38,0.00,CLR,OVC,0.00,WeatherDisplay:10.37,2013-02-23 16:16:00,
2013-02-23 11:21:00,32.2,8.8,28.14,West,260,0.0,3.5,37,0.00,CLR,OVC,0.00,WeatherDisplay:10.37,2013-02-23 16:21:00,
2013-02-23 11:26:00,32.2,8.8,28.14,West,261,0.0,0.0,37,0.00,CLR,OVC,0.00,WeatherDisplay:10.37,2013-02-23 16:26:00,
2013-02-23 11:31:00,33.1,9.6,28.14,West,261,0.0,0.0,37,0.00,CLR,OVC,0.00,WeatherDisplay:10.37,2013-02-23 16:31:00,
2013-02-23 11:36:00,33.6,8.8,28.14,West,261,0.0,0.0,35,0.00,CLR,OVC,0.00,WeatherDisplay:10.37,2013-02-23 16:36:00,
2013-02-23 11:41:00,34.2,9.9,28.14,West,261,0.0,0.0,36,0.00,CLR,OVC,0.00,WeatherDisplay:10.37,2013-02-23 16:41:00,
2013-02-23 11:46:00,34.3,10.7,28.14,West,261,0.0,0.0,37,0.00,CLR,OVC,0.00,WeatherDisplay:10.37,2013-02-23 16:46:00,
2013-02-23 11:51:00,33.6,7.5,28.14,West,261,0.0,0.0,33,0.00,CLR,OVC,0.00,WeatherDisplay:10.37,2013-02-23 16:51:00,
2013-02-23 11:56:00,32.9,7.6,28.14,West,261,0.0,0.0,34,0.00,CLR,OVC,0.00,WeatherDisplay:10.37,2013-02-23 16:56:00,
2013-02-23 12:01:00,34.0,9.2,28.14,West,261,0.0,0.0,35,0.00,CLR,OVC,0.00,WeatherDisplay:10.37,2013-02-23 17:01:00,
2013-02-23 12:06:00,35.8,10.1,28.14,West,261,0.0,2.3,34,0.00,CLR,OVC,0.00,WeatherDisplay:10.37,2013-02-23 17:06:00,
2013-02-23 12:11:00,35.2,8.3,28.14,West,264,2.2,2.3,32,0.00,CLR,OVC,0.00,WeatherDisplay:10.37,2013-02-23 17:11:00,
2013-02-23 12:16:00,34.5,8.3,28.14,West,264,0.0,0.0,33,0.00,CLR,OVC,0.00,WeatherDisplay:10.37,2013-02-23 17:16:00,
2013-02-23 12:21:00,34.3,8.2,28.14,WNW,283,0.0,0.0,33,0.00,CLR,OVC,0.00,WeatherDisplay:10.37,2013-02-23 17:21:00,
2013-02-23 12:26:00,33.8,7.7,28.14,WNW,282,0.0,0.0,33,0.00,CLR,OVC,0.00,WeatherDisplay:10.37,2013-02-23 17:26:00,
2013-02-23 12:31:00,33.6,7.5,28.14,South,182,0.0,3.5,33,0.00,CLR,OVC,0.00,WeatherDisplay:10.37,2013-02-23 17:31:00,
2013-02-23 12:36:00,34.9,8.0,28.14,South,189,0.0,3.5,32,0.00,CLR,OVC,0.00,WeatherDisplay:10.37,2013-02-23 17:36:00,
2013-02-23 12:41:00,34.0,7.8,28.14,SSW,192,0.0,0.0,33,0.00,CLR,OVC,0.00,WeatherDisplay:10.37,2013-02-23 17:41:00,
2013-02-23 12:46:00,31.8,6.6,28.14,SSW,192,0.0,0.0,34,0.00,CLR,OVC,0.00,WeatherDisplay:10.37,2013-02-23 17:46:00,
2013-02-23 12:51:00,30.9,7.1,28.14,SSW,192,0.0,0.0,36,0.00,CLR,OVC,0.00,WeatherDisplay:10.37,2013-02-23 17:51:00,
2013-02-23 12:56:00,31.5,8.1,28.14,SSW,192,0.0,0.0,37,0.00,CLR,OVC,0.00,WeatherDisplay:10.37,2013-02-23 17:56:00,
2013-02-23 13:01:00,31.8,8.5,28.14,SSW,192,0.0,0.0,37,0.00,CLR,OVC,0.00,WeatherDisplay:10.37,2013-02-23 18:01:00,
2013-02-23 13:06:00,31.8,8.5,28.14,SSW,192,0.0,0.0,37,0.00,CLR,OVC,0.00,WeatherDisplay:10.37,2013-02-23 18:06:00,
2013-02-23 13:11:00,31.8,8.5,28.14,SSW,192,0.0,0.0,37,0.00,CLR,OVC,0.00,WeatherDisplay:10.37,2013-02-23 18:11:00,
2013-02-23 13:16:00,31.1,9.6,28.14,SSW,192,2.2,3.5,40,0.00,CLR,OVC,0.00,WeatherDisplay:10.37,2013-02-23 18:16:00,
2013-02-23 13:21:00,30.2,8.7,28.14,South,183,4.0,5.8,40,0.00,CLR,OVC,0.00,WeatherDisplay:10.37,2013-02-23 18:21:00,
2013-02-23 13:26:00,30.0,9.7,28.14,South,178,0.0,2.3,42,0.00,CLR,OVC,0.00,WeatherDisplay:10.37,2013-02-23 18:26:00,
2013-02-23 13:31:00,30.6,10.7,28.14,SSW,198,2.7,3.5,43,0.00,CLR,OVC,0.00,WeatherDisplay:10.37,2013-02-23 18:31:00,
2013-02-23 13:36:00,31.5,11.0,28.14,SSW,198,0.0,0.0,42,0.00,CLR,OVC,0.00,WeatherDisplay:10.37,2013-02-23 18:36:00,
2013-02-23 13:41:00,31.1,10.6,28.14,South,173,0.0,3.5,42,0.00,CLR,OVC,0.00,WeatherDisplay:10.37,2013-02-23 18:41:00,
2013-02-23 13:46:00,31.3,10.8,28.14,SSW,195,2.7,5.8,42,0.00,CLR,OVC,0.00,WeatherDisplay:10.37,2013-02-23 18:46:00,
2013-02-23 13:51:00,30.9,11.0,28.14,SSW,195,3.6,4.0,43,0.00,CLR,OVC,0.00,WeatherDisplay:10.37,2013-02-23 18:51:00,
2013-02-23 13:56:00,31.3,11.3,28.14,South,170,3.1,5.8,43,0.00,CLR,OVC,0.00,WeatherDisplay:10.37,2013-02-23 18:56:00,
2013-02-23 14:01:00,31.6,11.1,28.14,SSW,197,3.1,3.5,42,0.00,CLR,OVC,0.00,WeatherDisplay:10.37,2013-02-23 19:01:00,
2013-02-23 14:06:00,33.1,11.3,28.14,SSE,156,3.6,3.6,40,0.00,CLR,OVC,0.00,WeatherDisplay:10.37,2013-02-23 19:06:00,
2013-02-23 14:11:00,34.2,12.3,28.14,SSW,198,0.0,3.5,40,0.00,CLR,OVC,0.00,WeatherDisplay:10.37,2013-02-23 19:11:00,
2013-02-23 14:16:00,34.0,11.6,28.14,WSW,249,3.1,5.8,39,0.00,CLR,OVC,0.00,WeatherDisplay:10.37,2013-02-23 19:16:00,
2013-02-23 14:21:00,33.1,11.3,28.14,West,276,0.0,0.0,40,0.00,CLR,OVC,0.00,WeatherDisplay:10.37,2013-02-23 19:21:00,
2013-02-23 14:26:00,32.2,10.5,28.14,West,276,0.0,0.0,40,0.00,CLR,OVC,0.00,WeatherDisplay:10.37,2013-02-23 19:26:00,
2013-02-23 14:31:00,31.8,10.8,28.14,West,276,0.0,0.0,41,0.00,CLR,OVC,0.00,WeatherDisplay:10.37,2013-02-23 19:31:00,
2013-02-23 14:36:00,31.8,11.8,28.14,NW,306,0.0,2.3,43,0.00,CLR,OVC,0.00,WeatherDisplay:10.37,2013-02-23 19:36:00,
2013-02-23 14:41:00,32.2,12.2,28.14,NW,308,2.2,2.7,43,0.00,CLR,OVC,0.00,WeatherDisplay:10.37,2013-02-23 19:41:00,
2013-02-23 14:46:00,31.8,11.3,28.14,North,350,0.0,0.0,42,0.00,CLR,OVC,0.00,WeatherDisplay:10.37,2013-02-23 19:46:00,
2013-02-23 14:51:00,31.8,11.3,28.14,SW,218,0.0,3.1,42,0.00,CLR,OVC,0.00,WeatherDisplay:10.37,2013-02-23 19:51:00,
2013-02-23 14:56:00,32.2,11.6,28.14,South,175,0.0,0.0,42,0.00,CLR,OVC,0.00,WeatherDisplay:10.37,2013-02-23 19:56:00,
2013-02-23 15:01:00,32.5,11.4,28.14,NW,318,2.2,3.5,41,0.00,CLR,OVC,0.00,WeatherDisplay:10.37,2013-02-23 20:01:00,
2013-02-23 15:06:00,32.4,11.2,28.14,NE,41,0.0,2.3,41,0.00,CLR,OVC,0.00,WeatherDisplay:10.37,2013-02-23 20:06:00,
2013-02-23 15:11:00,32.2,10.5,28.14,NE,56,4.5,8.1,40,0.00,CLR,OVC,0.00,WeatherDisplay:10.37,2013-02-23 20:11:00,
2013-02-23 15:16:00,32.5,10.9,28.14,NE,34,2.2,2.3,40,0.00,CLR,OVC,0.00,WeatherDisplay:10.37,2013-02-23 20:16:00,
2013-02-23 15:21:00,32.7,11.0,28.14,NE,34,0.0,0.0,40,0.00,CLR,OVC,0.00,WeatherDisplay:10.37,2013-02-23 20:21:00,
2013-02-23 15:26:00,32.7,11.0,28.14,North,357,3.1,5.8,40,0.04,RA,OVC,0.04,WeatherDisplay:10.37,2013-02-23 20:26:00,
2013-02-23 15:31:00,32.2,11.1,28.14,North,357,2.7,3.5,41,0.04,RA,OVC,0.04,WeatherDisplay:10.37,2013-02-23 20:31:00,
2013-02-23 15:36:00,31.6,11.1,28.14,NNE,32,0.0,0.0,42,0.04,,OVC,0.04,WeatherDisplay:10.37,2013-02-23 20:36:00,
2013-02-23 15:41:00,31.6,11.7,28.14,NNW,328,2.2,3.5,43,0.04,CLR,OVC,0.04,WeatherDisplay:10.37,2013-02-23 20:41:00,
2013-02-23 15:46:00,31.6,11.1,28.14,NW,325,2.7,8.3,42,0.04,CLR,OVC,0.04,WeatherDisplay:10.37,2013-02-23 20:46:00,
2013-02-23 15:51:00,31.8,11.3,28.17,NNW,341,0.0,2.7,42,0.04,CLR,OVC,0.04,WeatherDisplay:10.37,2013-02-23 20:51:00,
2013-02-23 15:56:00,31.8,11.3,28.17,North,353,2.7,5.8,42,0.04,CLR,OVC,0.04,WeatherDisplay:10.37,2013-02-23 20:56:00,
2013-02-23 16:01:00,34.0,12.2,28.17,North,0,2.2,5.4,40,0.04,CLR,OVC,0.04,WeatherDisplay:10.37,2013-02-23 21:01:00,
2013-02-23 16:06:00,33.4,11.7,28.17,NW,324,4.0,5.8,40,0.04,CLR,OVC,0.04,WeatherDisplay:10.37,2013-02-23 21:06:00,
2013-02-23 16:11:00,32.7,10.4,28.17,NE,39,6.7,9.2,39,0.04,CLR,OVC,0.04,WeatherDisplay:10.37,2013-02-23 21:11:00,
2013-02-23 16:16:00,32.5,10.9,28.17,NE,37,2.7,4.6,40,0.04,CLR,OVC,0.04,WeatherDisplay:10.37,2013-02-23 21:16:00,
2013-02-23 16:21:00,32.5,10.9,28.17,NNW,328,0.0,6.3,40,0.04,CLR,OVC,0.04,WeatherDisplay:10.37,2013-02-23 21:21:00,
2013-02-23 16:26:00,32.0,10.4,28.17,NW,321,4.5,5.8,40,0.00,CLR,OVC,0.04,WeatherDisplay:10.37,2013-02-23 21:26:00,
2013-02-23 16:31:00,31.3,9.7,28.17,WNW,294,0.0,0.0,40,0.00,CLR,OVC,0.04,WeatherDisplay:10.37,2013-02-23 21:31:00,
2013-02-23 16:36:00,31.3,9.7,28.17,NNW,343,0.0,0.0,40,0.00,CLR,OVC,0.04,WeatherDisplay:10.37,2013-02-23 21:36:00,
2013-02-23 16:41:00,30.9,9.9,28.17,NW,324,0.0,3.5,41,0.00,CLR,OVC,0.04,WeatherDisplay:10.37,2013-02-23 21:41:00,
2013-02-23 16:46:00,30.6,9.6,28.17,NW,322,0.0,3.5,41,0.00,CLR,OVC,0.04,WeatherDisplay:10.37,2013-02-23 21:46:00,
2013-02-23 16:51:00,30.6,9.6,28.17,NNW,328,2.7,3.6,41,0.00,CLR,OVC,0.04,WeatherDisplay:10.37,2013-02-23 21:51:00,
2013-02-23 16:56:00,30.4,10.0,28.17,West,281,0.0,4.0,42,0.00,CLR,OVC,0.04,WeatherDisplay:10.37,2013-02-23 21:56:00,
2013-02-23 17:01:00,30.0,9.7,28.17,WNW,282,0.0,0.0,42,0.00,CLR,OVC,0.04,WeatherDisplay:10.37,2013-02-23 22:01:00,
2013-02-23 17:06:00,30.0,10.2,28.17,North,357,2.2,3.5,43,0.00,CLR,OVC,0.04,WeatherDisplay:10.37,2013-02-23 22:06:00,
2013-02-23 17:11:00,29.5,9.7,28.17,NW,313,4.0,5.8,43,0.00,CLR,OVC,0.04,WeatherDisplay:10.37,2013-02-23 22:11:00,
2013-02-23 17:16:00,29.3,10.1,28.17,NW,312,2.7,5.8,44,0.00,CLR,OVC,0.04,WeatherDisplay:10.37,2013-02-23 22:16:00,
2013-02-23 17:21:00,29.1,10.4,28.17,NNW,338,2.7,5.8,45,0.00,CLR,OVC,0.04,WeatherDisplay:10.37,2013-02-23 22:21:00,
2013-02-23 17:26:00,28.8,10.6,28.17,NW,319,0.0,0.0,46,0.00,CLR,OVC,0.04,WeatherDisplay:10.37,2013-02-23 22:26:00,
2013-02-23 17:31:00,28.8,11.0,28.17,NNW,337,0.0,5.8,47,0.00,CLR,OVC,0.04,WeatherDisplay:10.37,2013-02-23 22:31:00,
2013-02-23 17:36:00,28.8,11.0,28.17,North,10,0.0,0.0,47,0.00,CLR,OVC,0.04,WeatherDisplay:10.37,2013-02-23 22:36:00,
2013-02-23 17:41:00,28.6,11.3,28.17,NW,312,0.0,3.1,48,0.00,CLR,OVC,0.04,WeatherDisplay:10.37,2013-02-23 22:41:00,
2013-02-23 17:46:00,28.4,11.6,28.17,West,270,2.2,5.8,49,0.00,CLR,OVC,0.04,WeatherDisplay:10.37,2013-02-23 22:46:00,
2013-02-23 17:51:00,28.4,12.1,28.17,WNW,301,0.0,3.5,50,0.00,CLR,OVC,0.04,WeatherDisplay:10.37,2013-02-23 22:51:00,
2013-02-23 17:56:00,28.2,11.9,28.17,WNW,301,0.0,2.3,50,0.00,CLR,OVC,0.04,WeatherDisplay:10.37,2013-02-23 22:56:00,
2013-02-23 18:01:00,28.0,12.2,28.17,NNW,337,0.0,3.5,51,0.00,CLR,OVC,0.04,WeatherDisplay:10.37,2013-02-23 23:01:00,
2013-02-23 18:06:00,28.0,12.2,28.20,North,353,0.0,4.6,51,0.00,CLR,OVC,0.04,WeatherDisplay:10.37,2013-02-23 23:06:00,
2013-02-23 18:11:00,27.9,12.1,28.20,NW,318,0.0,3.5,51,0.00,CLR,OVC,0.04,WeatherDisplay:10.37,2013-02-23 23:11:00,
2013-02-23 18:16:00,27.7,11.9,28.20,NNW,328,2.2,5.8,51,0.00,CLR,OVC,0.04,WeatherDisplay:10.37,2013-02-23 23:16:00,
2013-02-23 18:21:00,27.3,11.5,28.20,NE,53,2.2,3.5,51,0.00,CLR,OVC,0.04,WeatherDisplay:10.37,2013-02-23 23:21:00,
2013-02-23 18:26:00,27.1,11.8,28.20,NW,310,0.0,0.0,52,0.00,CLR,OVC,0.04,WeatherDisplay:10.37,2013-02-23 23:26:00,
2013-02-23 18:31:00,27.0,11.7,28.20,NW,308,0.0,2.3,52,0.00,CLR,OVC,0.04,WeatherDisplay:10.37,2013-02-23 23:31:00,
2013-02-23 18:36:00,27.0,12.1,28.20,WNW,303,3.6,5.8,53,0.00,CLR,OVC,0.04,WeatherDisplay:10.37,2013-02-23 23:36:00,
2013-02-23 18:41:00,27.0,12.5,28.20,NW,307,0.0,2.3,54,0.00,CLR,OVC,0.04,WeatherDisplay:10.37,2013-02-23 23:41:00,
2013-02-23 18:46:00,26.8,12.3,28.20,NW,304,0.0,2.3,54,0.00,CLR,OVC,0.04,WeatherDisplay:10.37,2013-02-23 23:46:00,
2013-02-23 18:51:00,26.8,12.3,28.20,NNW,348,0.0,3.6,54,0.00,CLR,OVC,0.04,WeatherDisplay:10.37,2013-02-23 23:51:00,
2013-02-23 18:56:00,26.6,12.6,28.20,West,277,0.0,3.1,55,0.00,CLR,OVC,0.04,WeatherDisplay:10.37,2013-02-23 23:56:00,
2013-02-23 19:01:00,26.6,12.6,28.20,NW,314,0.0,0.0,55,0.00,CLR,OVC,0.04,WeatherDisplay:10.37,2013-02-24 00:01:00,
2013-02-23 19:06:00,26.6,13.0,28.20,North,357,2.7,5.8,56,0.00,CLR,OVC,0.04,WeatherDisplay:10.37,2013-02-24 00:06:00,
2013-02-23 19:11:00,26.4,12.8,28.20,WSW,249,0.0,3.5,56,0.00,CLR,OVC,0.04,WeatherDisplay:10.37,2013-02-24 00:11:00,
2013-02-23 19:16:00,26.4,13.2,28.20,North,5,0.0,5.8,57,0.00,CLR,OVC,0.04,WeatherDisplay:10.37,2013-02-24 00:16:00,
2013-02-23 19:21:00,26.4,13.2,28.20,NW,326,0.0,2.3,57,0.00,CLR,OVC,0.04,WeatherDisplay:10.37,2013-02-24 00:21:00,
2013-02-23 19:26:00,26.4,13.2,28.20,NNW,332,0.0,0.0,57,0.00,CLR,OVC,0.04,WeatherDisplay:10.37,2013-02-24 00:26:00,
2013-02-23 19:31:00,26.4,13.2,28.20,NNW,345,0.0,4.6,57,0.00,CLR,OVC,0.04,WeatherDisplay:10.37,2013-02-24 00:31:00,
2013-02-23 19:36:00,26.4,13.2,28.23,NNW,335,0.0,5.8,57,0.00,CLR,OVC,0.04,WeatherDisplay:10.37,2013-02-24 00:36:00,
2013-02-23 19:41:00,26.4,13.2,28.23,NNW,336,0.0,2.3,57,0.00,CLR,OVC,0.04,WeatherDisplay:10.37,2013-02-24 00:41:00,
2013-02-23 19:46:00,26.2,13.5,28.23,NNW,330,0.0,0.0,58,0.00,CLR,OVC,0.04,WeatherDisplay:10.37,2013-02-24 00:46:00,
2013-02-23 19:51:00,26.2,13.5,28.23,NW,319,3.6,5.8,58,0.00,CLR,OVC,0.04,WeatherDisplay:10.37,2013-02-24 00:51:00,
2013-02-23 19:56:00,26.2,13.5,28.23,NW,309,4.9,8.1,58,0.00,CLR,OVC,0.04,WeatherDisplay:10.37,2013-02-24 00:56:00,
2013-02-23 20:01:00,26.2,13.5,28.23,North,350,2.2,5.8,58,0.00,CLR,OVC,0.04,WeatherDisplay:10.37,2013-02-24 01:01:00,
2013-02-23 20:06:00,26.2,13.5,28.23,NNW,340,0.0,2.7,58,0.00,CLR,OVC,0.04,WeatherDisplay:10.37,2013-02-24 01:06:00,
2013-02-23 20:11:00,26.2,13.5,28.23,North,7,0.0,3.5,58,0.00,CLR,OVC,0.04,WeatherDisplay:10.37,2013-02-24 01:11:00,
2013-02-23 20:16:00,26.1,13.3,28.23,NNW,331,0.0,3.5,58,0.00,CLR,OVC,0.04,WeatherDisplay:10.37,2013-02-24 01:16:00,
2013-02-23 20:21:00,26.1,13.3,28.23,NW,324,0.0,2.3,58,0.00,CLR,OVC,0.04,WeatherDisplay:10.37,2013-02-24 01:21:00,
2013-02-23 20:26:00,26.1,13.3,28.23,NW,306,0.0,0.0,58,0.00,CLR,OVC,0.04,WeatherDisplay:10.37,2013-02-24 01:26:00,
2013-02-23 20:31:00,26.1,13.3,28.23,NNW,333,0.0,2.3,58,0.00,CLR,OVC,0.04,WeatherDisplay:10.37,2013-02-24 01:31:00,
2013-02-23 20:36:00,26.1,13.3,28.23,NW,317,0.0,3.5,58,0.00,CLR,OVC,0.04,WeatherDisplay:10.37,2013-02-24 01:36:00,
2013-02-23 20:41:00,26.1,13.3,28.23,NNW,330,0.0,3.5,58,0.00,CLR,OVC,0.04,WeatherDisplay:10.37,2013-02-24 01:41:00,
2013-02-23 20:46:00,26.1,13.3,28.23,WNW,298,0.0,3.5,58,0.00,CLR,OVC,0.04,WeatherDisplay:10.37,2013-02-24 01:46:00,
2013-02-23 20:51:00,26.1,13.3,28.23,NW,319,0.0,2.3,58,0.00,CLR,OVC,0.04,WeatherDisplay:10.37,2013-02-24 01:51:00,
2013-02-23 20:56:00,26.1,13.3,28.23,NNW,338,2.2,3.5,58,0.00,CLR,OVC,0.04,WeatherDisplay:10.37,2013-02-24 01:56:00,
2013-02-23 21:01:00,26.1,13.3,28.23,NW,312,0.0,0.0,58,0.00,CLR,OVC,0.04,WeatherDisplay:10.37,2013-02-24 02:01:00,
2013-02-23 21:06:00,26.1,13.3,28.23,NW,325,0.0,0.0,58,0.00,CLR,OVC,0.04,WeatherDisplay:10.37,2013-02-24 02:06:00,
2013-02-23 21:11:00,26.1,13.3,28.23,NW,324,0.0,3.5,58,0.00,CLR,OVC,0.04,WeatherDisplay:10.37,2013-02-24 02:11:00,
2013-02-23 21:16:00,26.1,13.3,28.23,NW,307,2.2,3.5,58,0.00,CLR,OVC,0.04,WeatherDisplay:10.37,2013-02-24 02:16:00,
2013-02-23 21:21:00,26.1,13.3,28.23,NNW,340,0.0,3.5,58,0.00,CLR,OVC,0.04,WeatherDisplay:10.37,2013-02-24 02:21:00,
2013-02-23 21:26:00,26.1,13.3,28.23,NW,312,0.0,0.0,58,0.00,CLR,OVC,0.04,WeatherDisplay:10.37,2013-02-24 02:26:00,
2013-02-23 21:31:00,25.2,13.6,28.23,NW,321,0.0,3.5,61,0.00,CLR,OVC,0.04,WeatherDisplay:10.37,2013-02-24 02:31:00,
2013-02-23 21:36:00,25.3,13.8,28.23,NNW,337,0.0,5.8,61,0.00,CLR,OVC,0.04,WeatherDisplay:10.37,2013-02-24 02:36:00,
2013-02-23 21:41:00,25.2,13.6,28.23,NW,313,0.0,3.5,61,0.00,CLR,OVC,0.04,WeatherDisplay:10.37,2013-02-24 02:41:00,
2013-02-23 21:46:00,25.3,13.8,28.23,NW,310,0.0,0.0,61,0.00,CLR,OVC,0.04,WeatherDisplay:10.37,2013-02-24 02:46:00,
2013-02-23 21:51:00,25.3,13.8,28.23,WNW,289,0.0,3.5,61,0.00,CLR,OVC,0.04,WeatherDisplay:10.37,2013-02-24 02:51:00,
2013-02-23 21:56:00,25.3,13.8,28.23,NW,324,0.0,3.5,61,0.00,CLR,OVC,0.04,WeatherDisplay:10.37,2013-02-24 02:56:00,
2013-02-23 22:01:00,25.3,13.8,28.23,NW,323,0.0,0.0,61,0.00,CLR,OVC,0.04,WeatherDisplay:10.37,2013-02-24 03:01:00,
2013-02-23 22:06:00,25.2,13.6,28.23,WNW,302,2.2,3.5,61,0.00,CLR,OVC,0.04,WeatherDisplay:10.37,2013-02-24 03:06:00,
2013-02-23 22:11:00,25.2,13.6,28.23,NNW,341,2.2,3.5,61,0.00,CLR,OVC,0.04,WeatherDisplay:10.37,2013-02-24 03:11:00,
2013-02-23 22:16:00,25.2,13.6,28.23,NW,322,2.7,3.5,61,0.00,CLR,OVC,0.04,WeatherDisplay:10.37,2013-02-24 03:16:00,
2013-02-23 22:21:00,25.2,13.6,28.26,NNW,327,0.0,2.3,61,0.00,CLR,OVC,0.04,WeatherDisplay:10.37,2013-02-24 03:21:00,
2013-02-23 22:26:00,25.2,14.0,28.26,NNW,343,0.0,0.0,62,0.00,CLR,OVC,0.04,WeatherDisplay:10.37,2013-02-24 03:26:00,
2013-02-23 22:31:00,25.2,14.0,28.26,NNW,338,2.2,4.6,62,0.00,CLR,OVC,0.04,WeatherDisplay:10.37,2013-02-24 03:31:00,
2013-02-23 22:36:00,25.2,13.6,28.26,NW,311,2.7,4.6,61,0.00,CLR,OVC,0.04,WeatherDisplay:10.37,2013-02-24 03:36:00,
2013-02-23 22:41:00,25.2,14.0,28.26,WNW,293,3.6,3.6,62,0.00,CLR,OVC,0.04,WeatherDisplay:10.37,2013-02-24 03:41:00,
2013-02-23 22:46:00,25.2,14.0,28.26,NW,316,2.2,5.8,62,0.00,CLR,OVC,0.04,WeatherDisplay:10.37,2013-02-24 03:46:00,
2013-02-23 22:51:00,25.2,14.0,28.26,NW,304,3.1,5.8,62,0.00,CLR,OVC,0.04,WeatherDisplay:10.37,2013-02-24 03:51:00,
2013-02-23 22:56:00,25.2,14.0,28.26,NW,305,0.0,3.5,62,0.00,CLR,OVC,0.04,WeatherDisplay:10.37,2013-02-24 03:56:00,
2013-02-23 23:01:00,25.0,13.8,28.26,NW,324,0.0,2.3,62,0.00,CLR,OVC,0.04,WeatherDisplay:10.37,2013-02-24 04:01:00,
2013-02-23 23:06:00,25.0,13.8,28.26,NW,310,2.2,3.5,62,0.00,CLR,OVC,0.04,WeatherDisplay:10.37,2013-02-24 04:06:00,
2013-02-23 23:11:00,24.8,13.6,28.26,North,7,0.0,2.3,62,0.00,CLR,OVC,0.04,WeatherDisplay:10.37,2013-02-24 04:11:00,
2013-02-23 23:16:00,24.8,13.6,28.26,NW,325,2.2,2.7,62,0.00,CLR,OVC,0.04,WeatherDisplay:10.37,2013-02-24 04:16:00,
2013-02-23 23:21:00,24.8,13.6,28.26,NW,317,2.2,5.8,62,0.00,CLR,OVC,0.04,WeatherDisplay:10.37,2013-02-24 04:21:00,
2013-02-23 23:26:00,24.8,13.6,28.26,NW,326,3.6,3.6,62,0.00,CLR,OVC,0.04,WeatherDisplay:10.37,2013-02-24 04:26:00,
2013-02-23 23:31:00,24.8,13.6,28.26,NW,304,2.7,5.8,62,0.00,CLR,OVC,0.04,WeatherDisplay:10.37,2013-02-24 04:31:00,
2013-02-23 23:36:00,24.8,14.0,28.26,WNW,303,2.7,8.1,63,0.00,CLR,OVC,0.04,WeatherDisplay:10.37,2013-02-24 04:36:00,
2013-02-23 23:41:00,24.8,14.0,28.26,WNW,284,3.1,5.8,63,0.00,CLR,OVC,0.04,WeatherDisplay:10.37,2013-02-24 04:41:00,
2013-02-23 23:46:00,24.8,13.6,28.26,NW,311,0.0,2.3,62,0.00,CLR,OVC,0.04,WeatherDisplay:10.37,2013-02-24 04:46:00,
2013-02-23 23:51:00,24.8,13.6,28.26,NNW,334,3.1,5.8,62,0.00,CLR,OVC,0.04,WeatherDisplay:10.37,2013-02-24 04:51:00,
2013-02-23 23:56:00,24.6,13.4,28.26,NW,306,0.0,4.0,62,0.00,CLR,OVC,0.04,WeatherDisplay:10.37,2013-02-24 04:56:00,